sensor_id;sensor_type;location;lat;lon;timestamp;pressure;altitude;pressure_sealevel;temperature;humidity
4834;BME280;12895;51.064;7.028;2024-03-23T00:52:41;100107.75;;;9.72;85.04
4834;BME280;12895;51.064;7.028;2024-03-23T00:55:28;100106.91;;;9.66;85.00
4834;BME280;12895;51.064;7.028;2024-03-23T00:58:14;100123.19;;;9.64;84.79
4834;BME280;12895;51.064;7.028;2024-03-23T01:01:01;100119.19;;;9.65;84.83
4834;BME280;12895;51.064;7.028;2024-03-23T01:03:49;100107.03;;;9.57;85.12
4834;BME280;12895;51.064;7.028;2024-03-23T01:06:36;100103.47;;;9.51;85.07
4834;BME280;12895;51.064;7.028;2024-03-23T01:09:23;100100.41;;;9.49;84.99
4834;BME280;12895;51.064;7.028;2024-03-23T01:12:10;100097.50;;;9.38;85.33
4834;BME280;12895;51.064;7.028;2024-03-23T01:14:56;100086.47;;;9.38;85.74
4834;BME280;12895;51.064;7.028;2024-03-23T01:17:43;100091.94;;;9.32;85.88
4834;BME280;12895;51.064;7.028;2024-03-23T01:20:29;100098.97;;;9.33;85.56
4834;BME280;12895;51.064;7.028;2024-03-23T01:23:16;100088.56;;;9.23;84.84
4834;BME280;12895;51.064;7.028;2024-03-23T01:26:06;100078.88;;;9.13;84.29
4834;BME280;12895;51.064;7.028;2024-03-23T01:28:53;100090.50;;;9.02;84.72
4834;BME280;12895;51.064;7.028;2024-03-23T01:31:39;100081.50;;;9.02;84.82
4834;BME280;12895;51.064;7.028;2024-03-23T01:34:26;100101.72;;;8.99;84.65
4834;BME280;12895;51.064;7.028;2024-03-23T01:37:13;100095.66;;;8.95;84.32
4834;BME280;12895;51.064;7.028;2024-03-23T01:40:00;100110.09;;;8.90;84.52
4834;BME280;12895;51.064;7.028;2024-03-23T01:42:56;100106.69;;;8.95;84.06
4834;BME280;12895;51.064;7.028;2024-03-23T01:45:43;100097.19;;;8.96;84.41
4834;BME280;12895;51.064;7.028;2024-03-23T01:48:29;100092.81;;;8.89;84.13
4834;BME280;12895;51.064;7.028;2024-03-23T01:51:16;100091.31;;;8.88;83.70
4834;BME280;12895;51.064;7.028;2024-03-23T01:54:03;100089.00;;;8.87;83.76
4834;BME280;12895;51.064;7.028;2024-03-23T01:56:50;100091.50;;;8.85;83.43
4834;BME280;12895;51.064;7.028;2024-03-23T01:59:38;100078.38;;;8.80;83.26
4834;BME280;12895;51.064;7.028;2024-03-23T02:02:24;100089.41;;;8.80;83.74
4834;BME280;12895;51.064;7.028;2024-03-23T02:05:11;100084.31;;;8.73;83.63
4834;BME280;12895;51.064;7.028;2024-03-23T02:07:57;100094.63;;;8.78;82.82
4834;BME280;12895;51.064;7.028;2024-03-23T02:10:44;100096.84;;;8.74;82.35
4834;BME280;12895;51.064;7.028;2024-03-23T02:13:31;100090.28;;;8.71;82.51
4834;BME280;12895;51.064;7.028;2024-03-23T02:16:19;100085.25;;;8.70;82.53
4834;BME280;12895;51.064;7.028;2024-03-23T02:19:06;100087.16;;;8.64;83.45
4834;BME280;12895;51.064;7.028;2024-03-23T02:21:52;100088.09;;;8.61;83.65
4834;BME280;12895;51.064;7.028;2024-03-23T02:24:40;100086.84;;;8.62;83.31
4834;BME280;12895;51.064;7.028;2024-03-23T02:27:26;100090.19;;;8.66;84.10
4834;BME280;12895;51.064;7.028;2024-03-23T02:30:13;100078.03;;;8.58;83.04
4834;BME280;12895;51.064;7.028;2024-03-23T02:32:59;100093.34;;;8.44;82.08
4834;BME280;12895;51.064;7.028;2024-03-23T02:35:47;100103.47;;;8.38;82.03
4834;BME280;12895;51.064;7.028;2024-03-23T02:38:33;100105.59;;;8.29;82.25
4834;BME280;12895;51.064;7.028;2024-03-23T02:41:21;100101.59;;;8.30;81.75
4834;BME280;12895;51.064;7.028;2024-03-23T02:44:08;100101.03;;;8.26;80.86
4834;BME280;12895;51.064;7.028;2024-03-23T02:46:57;100095.22;;;8.24;81.12
4834;BME280;12895;51.064;7.028;2024-03-23T02:49:43;100099.78;;;8.27;80.30
4834;BME280;12895;51.064;7.028;2024-03-23T02:52:30;100108.63;;;8.31;79.57
4834;BME280;12895;51.064;7.028;2024-03-23T02:55:16;100114.72;;;8.35;78.46
4834;BME280;12895;51.064;7.028;2024-03-23T02:58:04;100101.97;;;8.23;79.08
4834;BME280;12895;51.064;7.028;2024-03-23T03:00:51;100105.34;;;8.18;79.86
4834;BME280;12895;51.064;7.028;2024-03-23T03:03:37;100112.22;;;8.22;79.94
4834;BME280;12895;51.064;7.028;2024-03-23T03:06:24;100110.53;;;8.25;79.45
4834;BME280;12895;51.064;7.028;2024-03-23T03:09:11;100101.22;;;8.22;80.11
4834;BME280;12895;51.064;7.028;2024-03-23T03:11:57;100102.81;;;8.29;79.89
4834;BME280;12895;51.064;7.028;2024-03-23T03:14:45;100107.28;;;8.26;80.81
4834;BME280;12895;51.064;7.028;2024-03-23T03:17:31;100096.09;;;8.30;81.45
4834;BME280;12895;51.064;7.028;2024-03-23T03:20:18;100091.53;;;8.27;81.06
4834;BME280;12895;51.064;7.028;2024-03-23T03:23:04;100084.50;;;8.26;81.09
4834;BME280;12895;51.064;7.028;2024-03-23T03:25:51;100073.50;;;8.26;80.80
4834;BME280;12895;51.064;7.028;2024-03-23T03:28:36;100079.94;;;8.23;81.93
4834;BME280;12895;51.064;7.028;2024-03-23T03:31:25;100080.53;;;8.27;81.89
4834;BME280;12895;51.064;7.028;2024-03-23T03:34:11;100094.28;;;8.27;81.03
4834;BME280;12895;51.064;7.028;2024-03-23T03:36:58;100094.94;;;8.22;82.60
4834;BME280;12895;51.064;7.028;2024-03-23T03:39:44;100091.59;;;8.18;82.62
4834;BME280;12895;51.064;7.028;2024-03-23T03:42:31;100098.91;;;8.21;82.34
4834;BME280;12895;51.064;7.028;2024-03-23T03:45:17;100093.41;;;8.21;82.25
4834;BME280;12895;51.064;7.028;2024-03-23T03:48:06;100095.88;;;8.19;82.11
4834;BME280;12895;51.064;7.028;2024-03-23T03:50:53;100091.91;;;8.20;81.08
4834;BME280;12895;51.064;7.028;2024-03-23T03:53:40;100104.16;;;8.19;81.17
4834;BME280;12895;51.064;7.028;2024-03-23T03:56:26;100098.91;;;8.21;81.05
4834;BME280;12895;51.064;7.028;2024-03-23T03:59:13;100092.66;;;8.20;79.90
4834;BME280;12895;51.064;7.028;2024-03-23T04:02:00;100106.13;;;8.18;80.52
4834;BME280;12895;51.064;7.028;2024-03-23T04:04:48;100101.72;;;8.12;80.61
4834;BME280;12895;51.064;7.028;2024-03-23T04:07:34;100105.53;;;8.14;80.63
4834;BME280;12895;51.064;7.028;2024-03-23T04:10:21;100106.91;;;8.19;80.65
4834;BME280;12895;51.064;7.028;2024-03-23T04:13:07;100107.22;;;8.12;79.85
4834;BME280;12895;51.064;7.028;2024-03-23T04:15:54;100106.84;;;8.04;80.17
4834;BME280;12895;51.064;7.028;2024-03-23T04:18:40;100103.25;;;8.13;79.89
4834;BME280;12895;51.064;7.028;2024-03-23T04:21:29;100099.81;;;8.03;79.96
4834;BME280;12895;51.064;7.028;2024-03-23T04:24:15;100100.00;;;8.00;80.67
4834;BME280;12895;51.064;7.028;2024-03-23T04:27:05;100096.69;;;7.96;80.27
4834;BME280;12895;51.064;7.028;2024-03-23T04:29:52;100102.84;;;7.91;81.13
4834;BME280;12895;51.064;7.028;2024-03-23T04:32:39;100094.56;;;7.91;81.20
4834;BME280;12895;51.064;7.028;2024-03-23T04:35:25;100099.06;;;8.03;81.06
4834;BME280;12895;51.064;7.028;2024-03-23T04:38:14;100109.03;;;8.01;80.74
4834;BME280;12895;51.064;7.028;2024-03-23T04:41:02;100105.16;;;8.07;80.52
4834;BME280;12895;51.064;7.028;2024-03-23T04:43:49;100110.34;;;8.05;81.06
4834;BME280;12895;51.064;7.028;2024-03-23T04:46:36;100108.53;;;8.02;81.71
4834;BME280;12895;51.064;7.028;2024-03-23T04:49:23;100100.00;;;8.00;81.77
4834;BME280;12895;51.064;7.028;2024-03-23T04:52:11;100105.06;;;8.02;81.70
4834;BME280;12895;51.064;7.028;2024-03-23T04:55:00;100114.81;;;8.02;81.85
4834;BME280;12895;51.064;7.028;2024-03-23T04:57:49;100111.59;;;8.04;81.84
4834;BME280;12895;51.064;7.028;2024-03-23T05:00:35;100113.41;;;8.07;81.40
4834;BME280;12895;51.064;7.028;2024-03-23T05:03:23;100111.78;;;8.01;80.60
4834;BME280;12895;51.064;7.028;2024-03-23T05:06:10;100104.38;;;8.06;81.58
4834;BME280;12895;51.064;7.028;2024-03-23T05:08:56;100103.63;;;8.06;81.75
4834;BME280;12895;51.064;7.028;2024-03-23T05:11:44;100101.16;;;8.08;81.54
4834;BME280;12895;51.064;7.028;2024-03-23T05:14:30;100104.56;;;8.03;81.23
4834;BME280;12895;51.064;7.028;2024-03-23T05:17:17;100113.09;;;8.05;80.88
4834;BME280;12895;51.064;7.028;2024-03-23T05:20:04;100115.94;;;7.96;81.02
4834;BME280;12895;51.064;7.028;2024-03-23T05:22:55;100109.84;;;7.92;81.65
4834;BME280;12895;51.064;7.028;2024-03-23T05:25:42;100121.47;;;7.96;82.19
4834;BME280;12895;51.064;7.028;2024-03-23T05:28:29;100123.53;;;8.01;82.33
4834;BME280;12895;51.064;7.028;2024-03-23T05:31:22;100130.16;;;7.95;82.16
4834;BME280;12895;51.064;7.028;2024-03-23T05:34:09;100132.63;;;7.93;82.25
4834;BME280;12895;51.064;7.028;2024-03-23T05:36:56;100122.38;;;7.93;82.20
4834;BME280;12895;51.064;7.028;2024-03-23T05:39:42;100117.66;;;7.94;81.65
4834;BME280;12895;51.064;7.028;2024-03-23T05:42:29;100128.84;;;7.90;82.13
4834;BME280;12895;51.064;7.028;2024-03-23T05:45:17;100123.97;;;7.85;81.81
4834;BME280;12895;51.064;7.028;2024-03-23T05:48:04;100121.81;;;7.89;82.34
4834;BME280;12895;51.064;7.028;2024-03-23T05:50:53;100119.69;;;7.84;82.70
4834;BME280;12895;51.064;7.028;2024-03-23T05:53:39;100122.94;;;7.83;82.43
4834;BME280;12895;51.064;7.028;2024-03-23T05:56:26;100131.38;;;7.79;82.53
4834;BME280;12895;51.064;7.028;2024-03-23T05:59:12;100132.00;;;7.74;82.82
4834;BME280;12895;51.064;7.028;2024-03-23T06:02:00;100123.69;;;7.83;82.35
4834;BME280;12895;51.064;7.028;2024-03-23T06:04:46;100135.91;;;7.82;83.17
4834;BME280;12895;51.064;7.028;2024-03-23T06:07:33;100123.69;;;7.83;82.75
4834;BME280;12895;51.064;7.028;2024-03-23T06:10:19;100134.50;;;7.87;82.15
4834;BME280;12895;51.064;7.028;2024-03-23T06:13:06;100156.69;;;7.83;82.85
4834;BME280;12895;51.064;7.028;2024-03-23T06:15:54;100152.72;;;7.84;83.46
4834;BME280;12895;51.064;7.028;2024-03-23T06:18:41;100159.16;;;7.81;83.29
4834;BME280;12895;51.064;7.028;2024-03-23T06:21:28;100152.38;;;7.91;82.81
4834;BME280;12895;51.064;7.028;2024-03-23T06:24:14;100145.91;;;7.94;82.61
4834;BME280;12895;51.064;7.028;2024-03-23T06:27:01;100147.16;;;7.93;83.09
4834;BME280;12895;51.064;7.028;2024-03-23T06:29:47;100139.16;;;7.95;82.44
4834;BME280;12895;51.064;7.028;2024-03-23T06:32:34;100137.75;;;7.99;82.59
4834;BME280;12895;51.064;7.028;2024-03-23T06:35:21;100150.88;;;8.04;83.08
4834;BME280;12895;51.064;7.028;2024-03-23T06:38:08;100143.97;;;8.09;81.62
4834;BME280;12895;51.064;7.028;2024-03-23T06:40:54;100152.78;;;8.13;81.40
4834;BME280;12895;51.064;7.028;2024-03-23T06:43:41;100151.56;;;8.14;81.56
4834;BME280;12895;51.064;7.028;2024-03-23T06:46:31;100149.75;;;8.11;81.83
4834;BME280;12895;51.064;7.028;2024-03-23T06:49:17;100150.72;;;8.08;82.13
4834;BME280;12895;51.064;7.028;2024-03-23T06:52:06;100157.72;;;8.09;81.32
4834;BME280;12895;51.064;7.028;2024-03-23T06:54:52;100160.38;;;8.03;81.40
4834;BME280;12895;51.064;7.028;2024-03-23T06:57:38;100150.72;;;8.08;81.44
4834;BME280;12895;51.064;7.028;2024-03-23T07:00:26;100157.81;;;8.00;80.86
4834;BME280;12895;51.064;7.028;2024-03-23T07:03:14;100157.50;;;7.98;81.00
4834;BME280;12895;51.064;7.028;2024-03-23T07:06:00;100155.00;;;7.86;81.68
4834;BME280;12895;51.064;7.028;2024-03-23T07:08:48;100159.16;;;7.81;82.31
4834;BME280;12895;51.064;7.028;2024-03-23T07:11:34;100155.41;;;7.93;82.04
4834;BME280;12895;51.064;7.028;2024-03-23T07:14:21;100161.84;;;7.90;81.64
4834;BME280;12895;51.064;7.028;2024-03-23T07:17:10;100160.97;;;7.84;81.96
4834;BME280;12895;51.064;7.028;2024-03-23T07:19:57;100151.78;;;7.87;82.61
4834;BME280;12895;51.064;7.028;2024-03-23T07:22:46;100161.19;;;7.95;82.26
4834;BME280;12895;51.064;7.028;2024-03-23T07:25:35;100163.03;;;7.98;82.64
4834;BME280;12895;51.064;7.028;2024-03-23T07:28:21;100165.66;;;7.93;83.03
4834;BME280;12895;51.064;7.028;2024-03-23T07:31:09;100171.66;;;8.05;82.48
4834;BME280;12895;51.064;7.028;2024-03-23T07:33:58;100170.44;;;8.06;82.71
4834;BME280;12895;51.064;7.028;2024-03-23T07:36:50;100181.66;;;8.17;81.94
4834;BME280;12895;51.064;7.028;2024-03-23T07:39:36;100167.22;;;8.08;82.10
4834;BME280;12895;51.064;7.028;2024-03-23T07:42:25;100178.63;;;8.15;82.43
4834;BME280;12895;51.064;7.028;2024-03-23T07:45:12;100170.50;;;8.21;82.24
4834;BME280;12895;51.064;7.028;2024-03-23T07:47:59;100178.22;;;8.31;81.46
4834;BME280;12895;51.064;7.028;2024-03-23T07:50:45;100165.78;;;8.36;80.97
4834;BME280;12895;51.064;7.028;2024-03-23T07:53:35;100168.47;;;8.45;81.30
4834;BME280;12895;51.064;7.028;2024-03-23T07:56:25;100170.81;;;8.52;81.25
4834;BME280;12895;51.064;7.028;2024-03-23T07:59:12;100163.63;;;8.83;81.19
4834;BME280;12895;51.064;7.028;2024-03-23T08:02:01;100179.00;;;8.90;78.98
4834;BME280;12895;51.064;7.028;2024-03-23T08:04:50;100160.66;;;8.87;79.67
4834;BME280;12895;51.064;7.028;2024-03-23T08:07:37;100170.19;;;8.86;78.88
4834;BME280;12895;51.064;7.028;2024-03-23T08:10:25;100163.97;;;8.91;79.60
4834;BME280;12895;51.064;7.028;2024-03-23T08:13:13;100172.72;;;9.04;79.77
4834;BME280;12895;51.064;7.028;2024-03-23T08:16:03;100165.97;;;9.05;79.24
4834;BME280;12895;51.064;7.028;2024-03-23T08:19:00;100166.53;;;9.09;78.05
4834;BME280;12895;51.064;7.028;2024-03-23T08:21:52;100158.34;;;9.14;77.14
4834;BME280;12895;51.064;7.028;2024-03-23T08:24:40;100161.88;;;9.15;78.34
4834;BME280;12895;51.064;7.028;2024-03-23T08:27:33;100168.88;;;9.30;77.31
4834;BME280;12895;51.064;7.028;2024-03-23T08:30:19;100171.16;;;9.32;74.25
4834;BME280;12895;51.064;7.028;2024-03-23T08:33:12;100167.31;;;9.44;72.46
4834;BME280;12895;51.064;7.028;2024-03-23T08:36:04;100169.41;;;9.69;72.49
4834;BME280;12895;51.064;7.028;2024-03-23T08:38:53;100169.56;;;9.80;69.08
4834;BME280;12895;51.064;7.028;2024-03-23T08:41:40;100178.31;;;9.78;70.33
4834;BME280;12895;51.064;7.028;2024-03-23T08:44:29;100167.91;;;10.08;69.77
4834;BME280;12895;51.064;7.028;2024-03-23T08:47:16;100167.41;;;10.29;67.93
4834;BME280;12895;51.064;7.028;2024-03-23T08:50:04;100164.50;;;10.64;67.67
4834;BME280;12895;51.064;7.028;2024-03-23T08:52:51;100179.16;;;10.70;66.64
4834;BME280;12895;51.064;7.028;2024-03-23T08:55:37;100192.59;;;10.57;63.63
4834;BME280;12895;51.064;7.028;2024-03-23T08:58:25;100180.34;;;10.38;64.57
4834;BME280;12895;51.064;7.028;2024-03-23T09:01:12;100178.47;;;10.29;64.97
4834;BME280;12895;51.064;7.028;2024-03-23T09:03:59;100177.44;;;10.27;65.26
4834;BME280;12895;51.064;7.028;2024-03-23T09:06:46;100173.28;;;10.37;65.46
4834;BME280;12895;51.064;7.028;2024-03-23T09:09:33;100178.94;;;10.48;62.52
4834;BME280;12895;51.064;7.028;2024-03-23T09:12:19;100176.75;;;10.32;64.06
4834;BME280;12895;51.064;7.028;2024-03-23T09:15:07;100186.16;;;10.20;63.93
4834;BME280;12895;51.064;7.028;2024-03-23T09:17:53;100182.69;;;10.05;62.87
4834;BME280;12895;51.064;7.028;2024-03-23T09:20:42;100187.94;;;10.03;64.15
4834;BME280;12895;51.064;7.028;2024-03-23T09:23:35;100177.09;;;9.99;64.07
4834;BME280;12895;51.064;7.028;2024-03-23T09:26:22;100175.56;;;9.98;64.70
4834;BME280;12895;51.064;7.028;2024-03-23T09:29:08;100171.50;;;10.14;64.75
4834;BME280;12895;51.064;7.028;2024-03-23T09:31:57;100167.59;;;10.46;64.28
4834;BME280;12895;51.064;7.028;2024-03-23T09:34:43;100164.91;;;10.51;63.29
4834;BME280;12895;51.064;7.028;2024-03-23T09:37:30;100166.19;;;10.56;62.55
4834;BME280;12895;51.064;7.028;2024-03-23T09:40:20;100170.44;;;10.51;61.90
4834;BME280;12895;51.064;7.028;2024-03-23T09:43:09;100167.09;;;10.22;62.61
4834;BME280;12895;51.064;7.028;2024-03-23T09:45:57;100161.03;;;10.18;62.97
4834;BME280;12895;51.064;7.028;2024-03-23T09:48:49;100159.75;;;10.39;63.19
4834;BME280;12895;51.064;7.028;2024-03-23T09:51:36;100161.47;;;10.62;58.54
4834;BME280;12895;51.064;7.028;2024-03-23T09:54:26;100168.50;;;10.63;58.89
4834;BME280;12895;51.064;7.028;2024-03-23T09:57:14;100144.25;;;10.47;59.94
4834;BME280;12895;51.064;7.028;2024-03-23T10:00:00;100156.38;;;10.55;57.69
4834;BME280;12895;51.064;7.028;2024-03-23T10:02:47;100148.38;;;10.57;58.07
4834;BME280;12895;51.064;7.028;2024-03-23T10:05:34;100148.13;;;10.60;58.48
4834;BME280;12895;51.064;7.028;2024-03-23T10:08:21;100145.53;;;10.77;58.31
4834;BME280;12895;51.064;7.028;2024-03-23T10:11:19;100139.97;;;11.02;56.44
4834;BME280;12895;51.064;7.028;2024-03-23T10:14:18;100149.81;;;11.08;54.13
4834;BME280;12895;51.064;7.028;2024-03-23T10:17:23;100159.19;;;10.86;51.92
4834;BME280;12895;51.064;7.028;2024-03-23T10:20:28;100153.09;;;10.82;52.34
4834;BME280;12895;51.064;7.028;2024-03-23T10:24:08;100138.59;;;10.87;52.99
4834;BME280;12895;51.064;7.028;2024-03-23T10:26:56;100135.53;;;11.15;54.42
4834;BME280;12895;51.064;7.028;2024-03-23T10:30:07;100137.31;;;11.18;52.90
4834;BME280;12895;51.064;7.028;2024-03-23T10:33:46;100140.41;;;11.31;53.10
4834;BME280;12895;51.064;7.028;2024-03-23T10:40:52;100130.91;;;10.71;54.98
4834;BME280;12895;51.064;7.028;2024-03-23T10:48:43;100156.16;;;10.58;55.04
4834;BME280;12895;51.064;7.028;2024-03-23T10:52:14;100163.25;;;10.65;54.71
4834;BME280;12895;51.064;7.028;2024-03-23T10:56:09;100161.63;;;10.53;54.10
4834;BME280;12895;51.064;7.028;2024-03-23T10:59:42;100170.34;;;10.46;54.86
4834;BME280;12895;51.064;7.028;2024-03-23T11:02:37;100168.41;;;10.52;54.03
4834;BME280;12895;51.064;7.028;2024-03-23T11:05:48;100171.34;;;10.43;54.31
4834;BME280;12895;51.064;7.028;2024-03-23T11:08:53;100162.66;;;10.30;54.54
4834;BME280;12895;51.064;7.028;2024-03-23T11:12:27;100166.19;;;10.10;55.27
4834;BME280;12895;51.064;7.028;2024-03-23T11:15:51;100221.97;;;9.60;59.06
4834;BME280;12895;51.064;7.028;2024-03-23T11:18:42;100234.19;;;8.66;61.62
4834;BME280;12895;51.064;7.028;2024-03-23T11:22:09;100224.25;;;7.84;66.45
4834;BME280;12895;51.064;7.028;2024-03-23T11:25:12;100232.38;;;7.46;68.61
4834;BME280;12895;51.064;7.028;2024-03-23T11:28:10;100226.31;;;7.42;71.87
4834;BME280;12895;51.064;7.028;2024-03-23T11:30:58;100209.81;;;7.42;72.36
4834;BME280;12895;51.064;7.028;2024-03-23T11:34:04;100185.53;;;7.41;73.83
4834;BME280;12895;51.064;7.028;2024-03-23T11:37:05;100175.22;;;7.59;70.38
4834;BME280;12895;51.064;7.028;2024-03-23T11:39:52;100174.72;;;7.84;70.43
4834;BME280;12895;51.064;7.028;2024-03-23T11:42:38;100170.50;;;8.21;69.92
4834;BME280;12895;51.064;7.028;2024-03-23T11:45:29;100161.44;;;8.44;70.07
4834;BME280;12895;51.064;7.028;2024-03-23T11:48:29;100168.06;;;8.81;67.92
4834;BME280;12895;51.064;7.028;2024-03-23T11:51:21;100165.28;;;9.10;65.52
4834;BME280;12895;51.064;7.028;2024-03-23T11:54:08;100168.22;;;9.21;67.41
4834;BME280;12895;51.064;7.028;2024-03-23T11:56:56;100154.31;;;9.30;66.53
4834;BME280;12895;51.064;7.028;2024-03-23T11:59:45;100149.91;;;9.38;66.36
4834;BME280;12895;51.064;7.028;2024-03-23T12:02:40;100157.16;;;9.35;69.03
4834;BME280;12895;51.064;7.028;2024-03-23T12:05:37;100150.66;;;9.53;66.90
4834;BME280;12895;51.064;7.028;2024-03-23T12:08:32;100146.25;;;9.61;68.11
4834;BME280;12895;51.064;7.028;2024-03-23T12:11:21;100149.97;;;9.78;68.21
4834;BME280;12895;51.064;7.028;2024-03-23T12:14:08;100135.88;;;9.96;70.83
4834;BME280;12895;51.064;7.028;2024-03-23T12:16:55;100134.28;;;10.29;69.26
4834;BME280;12895;51.064;7.028;2024-03-23T12:19:42;100137.31;;;10.57;65.35
4834;BME280;12895;51.064;7.028;2024-03-23T12:22:41;100202.84;;;10.31;63.47
4834;BME280;12895;51.064;7.028;2024-03-23T12:25:28;100189.91;;;9.82;66.71
4834;BME280;12895;51.064;7.028;2024-03-23T12:28:18;100222.69;;;9.75;67.25
4834;BME280;12895;51.064;7.028;2024-03-23T12:31:05;100195.31;;;9.57;71.11
4834;BME280;12895;51.064;7.028;2024-03-23T12:34:16;100203.44;;;9.46;67.72
4834;BME280;12895;51.064;7.028;2024-03-23T12:37:59;100210.09;;;8.90;71.76
4834;BME280;12895;51.064;7.028;2024-03-23T12:41:07;100211.41;;;8.95;69.16
4834;BME280;12895;51.064;7.028;2024-03-23T12:44:14;100229.28;;;8.70;69.60
4834;BME280;12895;51.064;7.028;2024-03-23T12:47:14;100241.38;;;8.35;70.88
4834;BME280;12895;51.064;7.028;2024-03-23T12:50:06;100248.97;;;7.93;76.42
4834;BME280;12895;51.064;7.028;2024-03-23T12:53:10;100237.44;;;7.06;82.09
4834;BME280;12895;51.064;7.028;2024-03-23T12:56:00;100201.50;;;6.68;85.88
4834;BME280;12895;51.064;7.028;2024-03-23T12:58:52;100181.41;;;6.53;89.58
4834;BME280;12895;51.064;7.028;2024-03-23T13:01:43;100185.97;;;6.56;93.91
4834;BME280;12895;51.064;7.028;2024-03-23T13:04:33;100180.41;;;6.83;90.95
4834;BME280;12895;51.064;7.028;2024-03-23T13:07:21;100182.09;;;7.22;91.66
4834;BME280;12895;51.064;7.028;2024-03-23T13:10:08;100170.66;;;7.47;91.67
4834;BME280;12895;51.064;7.028;2024-03-23T13:12:58;100177.13;;;7.68;92.07
4834;BME280;12895;51.064;7.028;2024-03-23T13:15:53;100173.19;;;7.83;89.77
4834;BME280;12895;51.064;7.028;2024-03-23T13:18:39;100162.19;;;7.83;88.92
4834;BME280;12895;51.064;7.028;2024-03-23T13:25:39;100159.38;;;7.92;82.15
4834;BME280;12895;51.064;7.028;2024-03-23T13:29:05;100149.19;;;8.07;80.30
4834;BME280;12895;51.064;7.028;2024-03-23T13:31:53;100143.56;;;8.25;78.89
4834;BME280;12895;51.064;7.028;2024-03-23T13:34:41;100145.84;;;8.41;81.51
4834;BME280;12895;51.064;7.028;2024-03-23T13:37:27;100133.97;;;8.93;74.10
4834;BME280;12895;51.064;7.028;2024-03-23T13:40:15;100138.53;;;8.96;75.51
4834;BME280;12895;51.064;7.028;2024-03-23T13:43:01;100143.94;;;9.05;70.28
4834;BME280;12895;51.064;7.028;2024-03-23T13:45:56;100134.97;;;9.10;73.07
4834;BME280;12895;51.064;7.028;2024-03-23T13:48:56;100130.19;;;9.25;72.55
4834;BME280;12895;51.064;7.028;2024-03-23T13:51:46;100129.38;;;9.39;70.35
4834;BME280;12895;51.064;7.028;2024-03-23T13:54:33;100118.34;;;9.59;73.65
4834;BME280;12895;51.064;7.028;2024-03-23T13:57:23;100124.09;;;9.75;68.73
4834;BME280;12895;51.064;7.028;2024-03-23T14:00:12;100124.03;;;9.70;70.84
4834;BME280;12895;51.064;7.028;2024-03-23T14:03:01;100121.25;;;9.50;71.80
4834;BME280;12895;51.064;7.028;2024-03-23T14:05:49;100124.00;;;9.50;68.94
4834;BME280;12895;51.064;7.028;2024-03-23T14:08:38;100121.66;;;9.43;70.06
4834;BME280;12895;51.064;7.028;2024-03-23T14:11:25;100126.34;;;9.37;70.95
4834;BME280;12895;51.064;7.028;2024-03-23T14:14:14;100132.69;;;9.43;68.91
4834;BME280;12895;51.064;7.028;2024-03-23T14:17:02;100124.31;;;9.52;71.17
4834;BME280;12895;51.064;7.028;2024-03-23T14:19:49;100120.84;;;9.77;66.33
4834;BME280;12895;51.064;7.028;2024-03-23T14:22:39;100115.44;;;9.88;70.10
4834;BME280;12895;51.064;7.028;2024-03-23T14:25:27;100106.06;;;10.00;67.84
4834;BME280;12895;51.064;7.028;2024-03-23T14:28:15;100114.00;;;10.12;67.64
4834;BME280;12895;51.064;7.028;2024-03-23T14:31:02;100107.84;;;10.23;66.34
4834;BME280;12895;51.064;7.028;2024-03-23T14:33:56;100106.53;;;10.44;63.99
4834;BME280;12895;51.064;7.028;2024-03-23T14:36:42;100095.69;;;10.66;62.59
4834;BME280;12895;51.064;7.028;2024-03-23T14:39:30;100091.03;;;10.52;60.81
4834;BME280;12895;51.064;7.028;2024-03-23T14:42:22;100102.31;;;10.23;62.36
4834;BME280;12895;51.064;7.028;2024-03-23T14:45:11;100104.72;;;10.10;60.08
4834;BME280;12895;51.064;7.028;2024-03-23T14:47:57;100106.91;;;9.86;58.39
4834;BME280;12895;51.064;7.028;2024-03-23T14:50:44;100109.19;;;9.67;59.13
4834;BME280;12895;51.064;7.028;2024-03-23T14:53:32;100121.53;;;9.52;62.21
4834;BME280;12895;51.064;7.028;2024-03-23T14:56:24;100120.66;;;9.26;64.67
4834;BME280;12895;51.064;7.028;2024-03-23T14:59:10;100120.72;;;9.11;65.53
4834;BME280;12895;51.064;7.028;2024-03-23T15:01:57;100124.03;;;9.01;67.58
4834;BME280;12895;51.064;7.028;2024-03-23T15:04:44;100118.84;;;9.03;67.88
4834;BME280;12895;51.064;7.028;2024-03-23T15:07:31;100118.84;;;9.03;62.29
4834;BME280;12895;51.064;7.028;2024-03-23T15:10:19;100114.88;;;8.89;63.71
4834;BME280;12895;51.064;7.028;2024-03-23T15:13:08;100116.78;;;8.69;67.53
4834;BME280;12895;51.064;7.028;2024-03-23T15:15:54;100120.97;;;8.50;67.90
4834;BME280;12895;51.064;7.028;2024-03-23T15:18:41;100116.97;;;8.51;65.22
4834;BME280;12895;51.064;7.028;2024-03-23T15:21:26;100108.63;;;8.60;66.10
4834;BME280;12895;51.064;7.028;2024-03-23T15:24:15;100103.00;;;8.69;67.87
4834;BME280;12895;51.064;7.028;2024-03-23T15:27:05;100102.72;;;9.16;69.16
4834;BME280;12895;51.064;7.028;2024-03-23T15:29:58;100086.84;;;10.62;63.79
4834;BME280;12895;51.064;7.028;2024-03-23T15:32:44;100090.94;;;12.08;58.97
4834;BME280;12895;51.064;7.028;2024-03-23T15:35:31;100078.38;;;12.18;60.16
4834;BME280;12895;51.064;7.028;2024-03-23T15:38:17;100079.59;;;13.49;56.73
4834;BME280;12895;51.064;7.028;2024-03-23T15:41:10;100075.44;;;16.21;48.62
4834;BME280;12895;51.064;7.028;2024-03-23T15:43:56;100056.75;;;18.21;46.03
4834;BME280;12895;51.064;7.028;2024-03-23T15:46:44;100069.72;;;20.70;40.00
4834;BME280;12895;51.064;7.028;2024-03-23T15:49:32;100075.75;;;21.27;35.17
4834;BME280;12895;51.064;7.028;2024-03-23T15:52:18;100073.53;;;21.95;34.83
4834;BME280;12895;51.064;7.028;2024-03-23T15:55:05;100069.97;;;22.66;32.91
4834;BME280;12895;51.064;7.028;2024-03-23T15:57:55;100066.06;;;22.22;34.52
4834;BME280;12895;51.064;7.028;2024-03-23T16:00:41;100062.53;;;19.46;35.65
4834;BME280;12895;51.064;7.028;2024-03-23T16:03:30;100064.13;;;16.32;41.33
4834;BME280;12895;51.064;7.028;2024-03-23T16:06:17;100067.88;;;14.24;46.37
4834;BME280;12895;51.064;7.028;2024-03-23T16:09:06;100066.34;;;12.98;50.35
4834;BME280;12895;51.064;7.028;2024-03-23T16:11:55;100071.84;;;12.10;50.67
4834;BME280;12895;51.064;7.028;2024-03-23T16:14:41;100075.19;;;11.61;53.58